sensor_id;sensor_type;location;lat;lon;timestamp;pressure;altitude;pressure_sealevel;temperature;humidity
71996;BME280;59862;47.732;7.346;2023-03-04T00:01:07;98613.07;;;2.19;71.42
71996;BME280;59862;47.732;7.346;2023-03-04T00:03:34;98617.16;;;2.12;71.45
71996;BME280;59862;47.732;7.346;2023-03-04T00:06:03;98615.93;;;2.05;71.81
71996;BME280;59862;47.732;7.346;2023-03-04T00:08:31;98619.30;;;2.07;71.84
71996;BME280;59862;47.732;7.346;2023-03-04T00:10:58;98624.00;;;2.03;71.81
71996;BME280;59862;47.732;7.346;2023-03-04T00:13:26;98620.63;;;2.12;71.69
71996;BME280;59862;47.732;7.346;2023-03-04T00:15:53;98623.28;;;2.12;71.67
71996;BME280;59862;47.732;7.346;2023-03-04T00:18:20;98626.30;;;2.08;71.71
71996;BME280;59862;47.732;7.346;2023-03-04T00:20:48;98625.79;;;2.03;71.84
71996;BME280;59862;47.732;7.346;2023-03-04T00:23:16;98628.39;;;1.92;72.18
71996;BME280;59862;47.732;7.346;2023-03-04T00:25:43;98629.24;;;1.92;72.33
71996;BME280;59862;47.732;7.346;2023-03-04T00:28:11;98627.88;;;1.87;72.43
71996;BME280;59862;47.732;7.346;2023-03-04T00:30:38;98631.38;;;1.93;72.28
71996;BME280;59862;47.732;7.346;2023-03-04T00:33:05;98631.77;;;1.94;72.08
71996;BME280;59862;47.732;7.346;2023-03-04T00:35:33;98633.12;;;1.76;72.51
71996;BME280;59862;47.732;7.346;2023-03-04T00:38:00;98631.84;;;1.58;73.28
71996;BME280;59862;47.732;7.346;2023-03-04T00:40:28;98633.30;;;1.62;73.44
71996;BME280;59862;47.732;7.346;2023-03-04T00:42:55;98634.38;;;1.65;73.36
71996;BME280;59862;47.732;7.346;2023-03-04T00:45:23;98633.76;;;1.56;73.66
71996;BME280;59862;47.732;7.346;2023-03-04T00:47:50;98630.59;;;1.50;73.66
71996;BME280;59862;47.732;7.346;2023-03-04T00:50:18;98632.84;;;1.44;74.04
71996;BME280;59862;47.732;7.346;2023-03-04T00:52:45;98636.22;;;1.46;74.04
71996;BME280;59862;47.732;7.346;2023-03-04T00:55:12;98633.97;;;1.34;74.24
71996;BME280;59862;47.732;7.346;2023-03-04T00:57:40;98628.45;;;1.32;74.38
71996;BME280;59862;47.732;7.346;2023-03-04T01:00:08;98631.02;;;1.21;74.74
71996;BME280;59862;47.732;7.346;2023-03-04T01:02:36;98628.27;;;1.22;74.85
71996;BME280;59862;47.732;7.346;2023-03-04T01:05:04;98630.78;;;1.24;74.81
71996;BME280;59862;47.732;7.346;2023-03-04T01:07:32;98628.98;;;1.24;74.77
71996;BME280;59862;47.732;7.346;2023-03-04T01:09:59;98635.52;;;1.13;75.00
71996;BME280;59862;47.732;7.346;2023-03-04T01:12:27;98628.83;;;1.15;75.19
71996;BME280;59862;47.732;7.346;2023-03-04T01:14:55;98621.84;;;1.14;75.06
71996;BME280;59862;47.732;7.346;2023-03-04T01:17:23;98620.39;;;1.15;75.00
71996;BME280;59862;47.732;7.346;2023-03-04T01:19:50;98620.98;;;1.13;74.97
71996;BME280;59862;47.732;7.346;2023-03-04T01:22:18;98617.28;;;1.16;74.92
71996;BME280;59862;47.732;7.346;2023-03-04T01:24:46;98619.45;;;1.16;74.86
71996;BME280;59862;47.732;7.346;2023-03-04T01:27:14;98618.40;;;1.19;74.79
71996;BME280;59862;47.732;7.346;2023-03-04T01:29:42;98614.52;;;1.17;74.60
71996;BME280;59862;47.732;7.346;2023-03-04T01:32:09;98620.90;;;1.15;74.66
71996;BME280;59862;47.732;7.346;2023-03-04T01:34:37;98613.30;;;1.10;74.77
71996;BME280;59862;47.732;7.346;2023-03-04T01:37:04;98612.33;;;1.11;74.73
71996;BME280;59862;47.732;7.346;2023-03-04T01:39:32;98603.66;;;1.09;74.74
71996;BME280;59862;47.732;7.346;2023-03-04T01:41:59;98612.77;;;1.05;74.81
71996;BME280;59862;47.732;7.346;2023-03-04T01:44:27;98614.41;;;1.01;74.89
71996;BME280;59862;47.732;7.346;2023-03-04T01:46:55;98611.30;;;1.01;74.84
71996;BME280;59862;47.732;7.346;2023-03-04T01:49:23;98602.50;;;0.95;74.81
71996;BME280;59862;47.732;7.346;2023-03-04T01:51:53;98610.05;;;0.94;74.85
71996;BME280;59862;47.732;7.346;2023-03-04T01:54:21;98606.81;;;0.96;74.91
71996;BME280;59862;47.732;7.346;2023-03-04T01:56:50;98605.20;;;0.88;74.95
71996;BME280;59862;47.732;7.346;2023-03-04T01:59:24;98609.02;;;0.84;75.04
71996;BME280;59862;47.732;7.346;2023-03-04T02:01:55;98605.41;;;0.85;74.85
71996;BME280;59862;47.732;7.346;2023-03-04T02:04:30;98599.68;;;0.91;74.67
71996;BME280;59862;47.732;7.346;2023-03-04T02:06:53;98600.91;;;0.93;74.52
71996;BME280;59862;47.732;7.346;2023-03-04T02:09:22;98593.25;;;0.95;74.29
71996;BME280;59862;47.732;7.346;2023-03-04T02:11:50;98589.44;;;0.99;73.95
71996;BME280;59862;47.732;7.346;2023-03-04T02:14:19;98594.31;;;0.93;74.08
71996;BME280;59862;47.732;7.346;2023-03-04T02:16:47;98595.78;;;0.97;73.70
71996;BME280;59862;47.732;7.346;2023-03-04T02:19:27;98589.91;;;0.99;73.61
71996;BME280;59862;47.732;7.346;2023-03-04T02:21:49;98593.98;;;0.97;73.46
71996;BME280;59862;47.732;7.346;2023-03-04T02:24:30;98600.27;;;0.89;73.59
71996;BME280;59862;47.732;7.346;2023-03-04T02:26:58;98591.02;;;0.89;73.58
71996;BME280;59862;47.732;7.346;2023-03-04T02:29:27;98592.58;;;0.86;73.52
71996;BME280;59862;47.732;7.346;2023-03-04T02:31:56;98595.69;;;0.86;73.47
71996;BME280;59862;47.732;7.346;2023-03-04T02:34:29;98587.64;;;0.87;73.21
71996;BME280;59862;47.732;7.346;2023-03-04T02:36:57;98592.93;;;0.87;73.12
71996;BME280;59862;47.732;7.346;2023-03-04T02:39:30;98587.88;;;0.84;73.12
71996;BME280;59862;47.732;7.346;2023-03-04T02:41:59;98601.17;;;0.83;73.06
71996;BME280;59862;47.732;7.346;2023-03-04T02:44:30;98596.28;;;0.84;73.06
71996;BME280;59862;47.732;7.346;2023-03-04T02:46:58;98598.77;;;0.80;73.02
71996;BME280;59862;47.732;7.346;2023-03-04T02:49:28;98600.36;;;0.82;72.95
71996;BME280;59862;47.732;7.346;2023-03-04T02:52:05;98598.92;;;0.84;72.82
71996;BME280;59862;47.732;7.346;2023-03-04T02:54:33;98596.22;;;0.78;72.93
71996;BME280;59862;47.732;7.346;2023-03-04T02:57:03;98601.56;;;0.84;72.74
71996;BME280;59862;47.732;7.346;2023-03-04T02:59:32;98596.39;;;0.82;72.77
71996;BME280;59862;47.732;7.346;2023-03-04T03:02:00;98598.45;;;0.84;72.67
71996;BME280;59862;47.732;7.346;2023-03-04T03:04:28;98601.68;;;0.82;72.81
71996;BME280;59862;47.732;7.346;2023-03-04T03:06:55;98603.73;;;0.84;72.83
71996;BME280;59862;47.732;7.346;2023-03-04T03:09:23;98599.24;;;0.79;72.88
71996;BME280;59862;47.732;7.346;2023-03-04T03:11:50;98596.22;;;0.78;72.97
71996;BME280;59862;47.732;7.346;2023-03-04T03:14:18;98600.17;;;0.78;73.11
71996;BME280;59862;47.732;7.346;2023-03-04T03:16:45;98596.80;;;0.76;73.14
71996;BME280;59862;47.732;7.346;2023-03-04T03:19:12;98595.33;;;0.72;73.26
71996;BME280;59862;47.732;7.346;2023-03-04T03:21:40;98591.34;;;0.66;73.40
71996;BME280;59862;47.732;7.346;2023-03-04T03:24:07;98597.83;;;0.68;73.52
71996;BME280;59862;47.732;7.346;2023-03-04T03:26:35;98600.70;;;0.65;73.65
71996;BME280;59862;47.732;7.346;2023-03-04T03:29:02;98595.94;;;0.57;73.74
71996;BME280;59862;47.732;7.346;2023-03-04T03:31:30;98595.32;;;0.54;73.93
71996;BME280;59862;47.732;7.346;2023-03-04T03:33:57;98590.63;;;0.52;74.04
71996;BME280;59862;47.732;7.346;2023-03-04T03:36:24;98597.63;;;0.46;74.22
71996;BME280;59862;47.732;7.346;2023-03-04T03:38:52;98595.38;;;0.47;74.27
71996;BME280;59862;47.732;7.346;2023-03-04T03:41:19;98598.13;;;0.45;74.32
71996;BME280;59862;47.732;7.346;2023-03-04T03:43:47;98602.17;;;0.44;74.34
71996;BME280;59862;47.732;7.346;2023-03-04T03:46:14;98604.50;;;0.36;74.46
71996;BME280;59862;47.732;7.346;2023-03-04T03:48:41;98595.27;;;0.36;74.65
71996;BME280;59862;47.732;7.346;2023-03-04T03:51:10;98594.80;;;0.24;74.91
71996;BME280;59862;47.732;7.346;2023-03-04T03:53:37;98600.08;;;0.24;75.00
71996;BME280;59862;47.732;7.346;2023-03-04T03:56:05;98596.31;;;0.21;75.12
71996;BME280;59862;47.732;7.346;2023-03-04T03:58:33;98600.58;;;0.16;75.23
71996;BME280;59862;47.732;7.346;2023-03-04T04:01:00;98601.63;;;0.14;75.44
71996;BME280;59862;47.732;7.346;2023-03-04T04:03:28;98597.91;;;0.11;75.47
71996;BME280;59862;47.732;7.346;2023-03-04T04:05:56;98600.77;;;0.00;75.76
71996;BME280;59862;47.732;7.346;2023-03-04T04:08:23;98601.19;;;-0.06;76.07
71996;BME280;59862;47.732;7.346;2023-03-04T04:10:51;98601.38;;;-0.09;76.39
71996;BME280;59862;47.732;7.346;2023-03-04T04:13:18;98613.64;;;-0.08;76.49
71996;BME280;59862;47.732;7.346;2023-03-04T04:15:46;98612.16;;;-0.12;76.69
71996;BME280;59862;47.732;7.346;2023-03-04T04:18:13;98609.24;;;-0.14;76.83
71996;BME280;59862;47.732;7.346;2023-03-04T04:20:41;98608.97;;;-0.17;77.02
71996;BME280;59862;47.732;7.346;2023-03-04T04:23:08;98615.78;;;-0.20;77.06
71996;BME280;59862;47.732;7.346;2023-03-04T04:25:35;98612.38;;;-0.22;77.25
71996;BME280;59862;47.732;7.346;2023-03-04T04:28:03;98604.52;;;-0.29;77.50
71996;BME280;59862;47.732;7.346;2023-03-04T04:30:30;98604.60;;;-0.30;77.71
71996;BME280;59862;47.732;7.346;2023-03-04T04:32:58;98611.99;;;-0.35;77.84
71996;BME280;59862;47.732;7.346;2023-03-04T04:35:28;98612.41;;;-0.41;78.14
71996;BME280;59862;47.732;7.346;2023-03-04T04:37:55;98609.38;;;-0.42;78.34
71996;BME280;59862;47.732;7.346;2023-03-04T04:40:22;98604.69;;;-0.44;78.31
71996;BME280;59862;47.732;7.346;2023-03-04T04:42:50;98610.06;;;-0.46;78.47
71996;BME280;59862;47.732;7.346;2023-03-04T04:45:17;98607.31;;;-0.44;78.56
71996;BME280;59862;47.732;7.346;2023-03-04T04:47:45;98611.84;;;-0.46;78.50
71996;BME280;59862;47.732;7.346;2023-03-04T04:50:12;98609.34;;;-0.55;78.77
71996;BME280;59862;47.732;7.346;2023-03-04T04:52:40;98609.99;;;-0.58;78.96
71996;BME280;59862;47.732;7.346;2023-03-04T04:55:08;98608.04;;;-0.62;79.19
71996;BME280;59862;47.732;7.346;2023-03-04T04:57:36;98611.53;;;-0.61;79.30
71996;BME280;59862;47.732;7.346;2023-03-04T05:00:05;98616.63;;;-0.65;79.42
71996;BME280;59862;47.732;7.346;2023-03-04T05:02:34;98613.14;;;-0.66;79.49
71996;BME280;59862;47.732;7.346;2023-03-04T05:05:05;98620.66;;;-0.67;79.47
71996;BME280;59862;47.732;7.346;2023-03-04T05:07:33;98618.59;;;-0.69;79.56
71996;BME280;59862;47.732;7.346;2023-03-04T05:10:00;98613.25;;;-0.67;79.59
71996;BME280;59862;47.732;7.346;2023-03-04T05:12:28;98618.86;;;-0.59;79.32
71996;BME280;59862;47.732;7.346;2023-03-04T05:14:55;98622.25;;;-0.64;79.16
71996;BME280;59862;47.732;7.346;2023-03-04T05:17:23;98623.29;;;-0.67;79.23
71996;BME280;59862;47.732;7.346;2023-03-04T05:19:50;98622.47;;;-0.67;79.35
71996;BME280;59862;47.732;7.346;2023-03-04T05:22:17;98621.23;;;-0.69;79.39
71996;BME280;59862;47.732;7.346;2023-03-04T05:24:45;98623.52;;;-0.77;79.59
71996;BME280;59862;47.732;7.346;2023-03-04T05:27:12;98620.32;;;-0.82;79.83
71996;BME280;59862;47.732;7.346;2023-03-04T05:29:40;98622.14;;;-0.83;79.89
71996;BME280;59862;47.732;7.346;2023-03-04T05:32:09;98619.69;;;-0.86;79.94
71996;BME280;59862;47.732;7.346;2023-03-04T05:34:36;98622.42;;;-0.87;80.05
71996;BME280;59862;47.732;7.346;2023-03-04T05:37:03;98623.35;;;-0.88;80.11
71996;BME280;59862;47.732;7.346;2023-03-04T05:39:31;98625.99;;;-0.95;80.34
71996;BME280;59862;47.732;7.346;2023-03-04T05:41:59;98623.19;;;-0.99;80.59
71996;BME280;59862;47.732;7.346;2023-03-04T05:44:26;98628.27;;;-1.03;80.77
71996;BME280;59862;47.732;7.346;2023-03-04T05:46:53;98626.03;;;-1.02;80.93
71996;BME280;59862;47.732;7.346;2023-03-04T05:49:21;98626.67;;;-1.06;81.24
71996;BME280;59862;47.732;7.346;2023-03-04T05:51:48;98622.37;;;-1.14;81.54
71996;BME280;59862;47.732;7.346;2023-03-04T05:54:16;98630.94;;;-1.17;81.77
71996;BME280;59862;47.732;7.346;2023-03-04T05:56:44;98627.73;;;-1.15;81.98
71996;BME280;59862;47.732;7.346;2023-03-04T05:59:11;98623.22;;;-1.13;82.02
71996;BME280;59862;47.732;7.346;2023-03-04T06:01:39;98626.78;;;-1.07;81.90
71996;BME280;59862;47.732;7.346;2023-03-04T06:04:06;98627.24;;;-1.08;81.83
71996;BME280;59862;47.732;7.346;2023-03-04T06:06:34;98633.44;;;-1.02;81.71
71996;BME280;59862;47.732;7.346;2023-03-04T06:09:01;98625.64;;;-0.96;81.49
71996;BME280;59862;47.732;7.346;2023-03-04T06:11:29;98638.41;;;-0.90;81.19
71996;BME280;59862;47.732;7.346;2023-03-04T06:13:56;98639.55;;;-0.94;81.06
71996;BME280;59862;47.732;7.346;2023-03-04T06:16:24;98644.81;;;-0.94;80.97
71996;BME280;59862;47.732;7.346;2023-03-04T06:18:51;98645.56;;;-0.99;80.95
71996;BME280;59862;47.732;7.346;2023-03-04T06:21:19;98650.19;;;-0.96;80.92
71996;BME280;59862;47.732;7.346;2023-03-04T06:23:46;98646.99;;;-1.01;80.99
71996;BME280;59862;47.732;7.346;2023-03-04T06:26:13;98653.68;;;-1.09;81.14
71996;BME280;59862;47.732;7.346;2023-03-04T06:28:42;98659.23;;;-1.14;81.63
71996;BME280;59862;47.732;7.346;2023-03-04T06:31:10;98659.62;;;-1.13;81.84
71996;BME280;59862;47.732;7.346;2023-03-04T06:33:37;98660.73;;;-1.10;82.01
71996;BME280;59862;47.732;7.346;2023-03-04T06:36:05;98661.12;;;-1.09;82.09
71996;BME280;59862;47.732;7.346;2023-03-04T06:38:33;98664.11;;;-1.01;82.12
71996;BME280;59862;47.732;7.346;2023-03-04T06:41:10;98667.31;;;-1.03;82.11
71996;BME280;59862;47.732;7.346;2023-03-04T06:43:39;98673.15;;;-0.98;82.25
71996;BME280;59862;47.732;7.346;2023-03-04T06:46:07;98674.93;;;-0.91;82.10
71996;BME280;59862;47.732;7.346;2023-03-04T06:48:36;98670.66;;;-0.80;81.90
71996;BME280;59862;47.732;7.346;2023-03-04T06:51:08;98674.89;;;-0.77;81.72
71996;BME280;59862;47.732;7.346;2023-03-04T06:53:37;98675.53;;;-0.66;81.60
71996;BME280;59862;47.732;7.346;2023-03-04T06:58:32;98682.00;;;-0.58;81.18
71996;BME280;59862;47.732;7.346;2023-03-04T07:01:19;98683.48;;;-0.54;81.16
71996;BME280;59862;47.732;7.346;2023-03-04T07:03:43;98692.54;;;-0.58;81.10
71996;BME280;59862;47.732;7.346;2023-03-04T07:06:13;98689.14;;;-0.46;81.11
71996;BME280;59862;47.732;7.346;2023-03-04T07:08:41;98692.41;;;-0.42;80.90
71996;BME280;59862;47.732;7.346;2023-03-04T07:11:09;98697.58;;;-0.41;80.71
71996;BME280;59862;47.732;7.346;2023-03-04T07:13:37;98693.80;;;-0.37;80.65
71996;BME280;59862;47.732;7.346;2023-03-04T07:16:07;98702.93;;;-0.28;80.53
71996;BME280;59862;47.732;7.346;2023-03-04T07:18:36;98701.83;;;-0.12;80.25
71996;BME280;59862;47.732;7.346;2023-03-04T07:21:05;98703.42;;;-0.09;79.75
71996;BME280;59862;47.732;7.346;2023-03-04T07:23:33;98705.02;;;-0.07;79.52
71996;BME280;59862;47.732;7.346;2023-03-04T07:26:01;98712.30;;;0.03;79.35
71996;BME280;59862;47.732;7.346;2023-03-04T07:28:29;98704.69;;;-0.02;78.98
71996;BME280;59862;47.732;7.346;2023-03-04T07:31:06;98706.34;;;-0.07;79.36
71996;BME280;59862;47.732;7.346;2023-03-04T07:33:26;98712.37;;;0.15;79.26
71996;BME280;59862;47.732;7.346;2023-03-04T07:36:00;98709.75;;;0.28;78.70
71996;BME280;59862;47.732;7.346;2023-03-04T07:38:27;98715.95;;;0.46;78.42
71996;BME280;59862;47.732;7.346;2023-03-04T07:40:57;98723.14;;;0.57;77.71
71996;BME280;59862;47.732;7.346;2023-03-04T07:43:25;98721.52;;;0.74;77.46
71996;BME280;59862;47.732;7.346;2023-03-04T07:45:57;98722.09;;;0.72;77.12
71996;BME280;59862;47.732;7.346;2023-03-04T07:48:21;98716.25;;;0.99;76.76
71996;BME280;59862;47.732;7.346;2023-03-04T07:50:49;98714.02;;;1.18;75.84
71996;BME280;59862;47.732;7.346;2023-03-04T07:53:16;98716.66;;;1.18;74.95
71996;BME280;59862;47.732;7.346;2023-03-04T07:55:46;98724.67;;;1.29;74.94
71996;BME280;59862;47.732;7.346;2023-03-04T07:58:14;98720.44;;;1.58;74.42
71996;BME280;59862;47.732;7.346;2023-03-04T08:00:43;98719.52;;;1.64;73.51
71996;BME280;59862;47.732;7.346;2023-03-04T08:03:10;98719.42;;;1.89;73.34
71996;BME280;59862;47.732;7.346;2023-03-04T08:05:41;98720.71;;;2.31;72.59
71996;BME280;59862;47.732;7.346;2023-03-04T08:08:08;98718.67;;;2.35;70.82
71996;BME280;59862;47.732;7.346;2023-03-04T08:10:36;98719.23;;;1.98;71.49
71996;BME280;59862;47.732;7.346;2023-03-04T08:13:06;98718.67;;;1.82;72.40
71996;BME280;59862;47.732;7.346;2023-03-04T08:15:38;98722.97;;;1.59;72.94
71996;BME280;59862;47.732;7.346;2023-03-04T08:18:03;98713.86;;;1.81;73.05
71996;BME280;59862;47.732;7.346;2023-03-04T08:20:30;98718.53;;;2.25;71.58
71996;BME280;59862;47.732;7.346;2023-03-04T08:22:58;98722.56;;;2.47;71.01
71996;BME280;59862;47.732;7.346;2023-03-04T08:25:25;98722.78;;;2.79;69.75
71996;BME280;59862;47.732;7.346;2023-03-04T08:27:52;98724.01;;;2.91;69.11
71996;BME280;59862;47.732;7.346;2023-03-04T08:30:20;98724.62;;;3.34;68.54
71996;BME280;59862;47.732;7.346;2023-03-04T08:32:47;98721.02;;;3.40;67.81
71996;BME280;59862;47.732;7.346;2023-03-04T08:35:15;98722.83;;;3.34;67.43
71996;BME280;59862;47.732;7.346;2023-03-04T08:37:42;98723.66;;;3.13;68.12
71996;BME280;59862;47.732;7.346;2023-03-04T08:40:12;98729.33;;;3.36;67.61
71996;BME280;59862;47.732;7.346;2023-03-04T08:42:41;98730.41;;;3.17;67.81
71996;BME280;59862;47.732;7.346;2023-03-04T08:45:09;98732.20;;;2.99;68.24
71996;BME280;59862;47.732;7.346;2023-03-04T08:47:37;98734.08;;;2.75;68.93
71996;BME280;59862;47.732;7.346;2023-03-04T08:50:06;98732.80;;;2.46;69.69
71996;BME280;59862;47.732;7.346;2023-03-04T08:52:34;98730.13;;;1.88;71.47
71996;BME280;59862;47.732;7.346;2023-03-04T08:55:02;98733.88;;;1.73;72.74
71996;BME280;59862;47.732;7.346;2023-03-04T08:57:30;98732.11;;;1.97;72.48
71996;BME280;59862;47.732;7.346;2023-03-04T08:59:57;98730.33;;;2.03;71.66
71996;BME280;59862;47.732;7.346;2023-03-04T09:02:25;98731.90;;;2.29;71.50
71996;BME280;59862;47.732;7.346;2023-03-04T09:04:52;98731.77;;;2.65;70.56
71996;BME280;59862;47.732;7.346;2023-03-04T09:07:20;98728.44;;;2.74;69.67
71996;BME280;59862;47.732;7.346;2023-03-04T09:09:47;98726.31;;;2.56;69.76
71996;BME280;59862;47.732;7.346;2023-03-04T09:12:14;98731.23;;;2.49;69.97
71996;BME280;59862;47.732;7.346;2023-03-04T09:14:42;98730.47;;;2.07;71.40
71996;BME280;59862;47.732;7.346;2023-03-04T09:17:09;98732.46;;;2.51;71.20
71996;BME280;59862;47.732;7.346;2023-03-04T09:19:37;98735.67;;;2.43;70.97
71996;BME280;59862;47.732;7.346;2023-03-04T09:22:04;98737.28;;;3.02;70.06
71996;BME280;59862;47.732;7.346;2023-03-04T09:24:32;98730.31;;;3.46;68.28
71996;BME280;59862;47.732;7.346;2023-03-04T09:26:59;98730.97;;;4.29;66.05
71996;BME280;59862;47.732;7.346;2023-03-04T09:29:26;98719.36;;;5.18;62.98
71996;BME280;59862;47.732;7.346;2023-03-04T09:31:54;98723.50;;;5.32;61.27
71996;BME280;59862;47.732;7.346;2023-03-04T09:34:21;98717.44;;;5.90;60.36
71996;BME280;59862;47.732;7.346;2023-03-04T09:36:49;98722.31;;;5.85;59.60
71996;BME280;59862;47.732;7.346;2023-03-04T09:39:16;98722.31;;;6.10;58.99
71996;BME280;59862;47.732;7.346;2023-03-04T09:41:46;98731.92;;;5.67;60.35
71996;BME280;59862;47.732;7.346;2023-03-04T09:44:29;98726.86;;;6.13;58.75
71996;BME280;59862;47.732;7.346;2023-03-04T09:47:00;98722.43;;;5.99;59.01
71996;BME280;59862;47.732;7.346;2023-03-04T09:49:28;98720.23;;;6.42;58.23
71996;BME280;59862;47.732;7.346;2023-03-04T09:52:01;98725.24;;;6.93;56.79
71996;BME280;59862;47.732;7.346;2023-03-04T09:57:14;98720.15;;;6.76;55.64
71996;BME280;59862;47.732;7.346;2023-03-04T10:00:25;98721.98;;;7.18;55.53
71996;BME280;59862;47.732;7.346;2023-03-04T10:04:52;98717.27;;;7.39;53.86
71996;BME280;59862;47.732;7.346;2023-03-04T10:07:23;98715.52;;;6.50;56.24
71996;BME280;59862;47.732;7.346;2023-03-04T10:09:58;98719.66;;;6.77;56.10
71996;BME280;59862;47.732;7.346;2023-03-04T10:12:23;98716.80;;;7.17;55.90
71996;BME280;59862;47.732;7.346;2023-03-04T10:15:04;98721.37;;;7.34;54.92
71996;BME280;59862;47.732;7.346;2023-03-04T10:17:37;98712.98;;;7.42;55.01
71996;BME280;59862;47.732;7.346;2023-03-04T10:22:57;98716.11;;;7.05;54.82
71996;BME280;59862;47.732;7.346;2023-03-04T10:25:27;98714.19;;;6.50;56.60
71996;BME280;59862;47.732;7.346;2023-03-04T10:30:40;98702.50;;;7.58;53.33
71996;BME280;59862;47.732;7.346;2023-03-04T10:33:16;98711.89;;;7.62;53.29
71996;BME280;59862;47.732;7.346;2023-03-04T10:35:52;98709.19;;;8.26;52.44
71996;BME280;59862;47.732;7.346;2023-03-04T10:38:17;98701.79;;;8.38;51.97
71996;BME280;59862;47.732;7.346;2023-03-04T10:40:44;98705.71;;;8.16;52.26
71996;BME280;59862;47.732;7.346;2023-03-04T10:43:17;98712.33;;;8.57;50.79
71996;BME280;59862;47.732;7.346;2023-03-04T10:45:46;98711.48;;;8.39;51.06
71996;BME280;59862;47.732;7.346;2023-03-04T10:48:28;98701.39;;;7.88;52.24
71996;BME280;59862;47.732;7.346;2023-03-04T10:50:47;98707.66;;;7.70;53.17
71996;BME280;59862;47.732;7.346;2023-03-04T10:53:30;98703.51;;;8.29;51.51
71996;BME280;59862;47.732;7.346;2023-03-04T10:55:59;98701.52;;;8.84;50.21
71996;BME280;59862;47.732;7.346;2023-03-04T10:58:28;98703.94;;;8.95;49.55
71996;BME280;59862;47.732;7.346;2023-03-04T11:01:02;98706.27;;;9.42;49.01
71996;BME280;59862;47.732;7.346;2023-03-04T11:03:32;98699.44;;;9.85;48.09
71996;BME280;59862;47.732;7.346;2023-03-04T11:06:21;98696.54;;;9.41;48.15
71996;BME280;59862;47.732;7.346;2023-03-04T11:08:57;98699.00;;;10.10;47.53
71996;BME280;59862;47.732;7.346;2023-03-04T11:11:40;98697.83;;;10.04;46.47
71996;BME280;59862;47.732;7.346;2023-03-04T11:14:26;98695.39;;;10.27;46.82
71996;BME280;59862;47.732;7.346;2023-03-04T11:16:59;98694.62;;;10.91;45.50
71996;BME280;59862;47.732;7.346;2023-03-04T11:19:41;98690.25;;;10.90;45.32
71996;BME280;59862;47.732;7.346;2023-03-04T11:22:12;98678.00;;;10.83;45.60
71996;BME280;59862;47.732;7.346;2023-03-04T11:24:42;98682.55;;;10.54;45.69
71996;BME280;59862;47.732;7.346;2023-03-04T11:27:35;98673.16;;;10.58;46.13
71996;BME280;59862;47.732;7.346;2023-03-04T11:29:55;98666.87;;;11.26;44.44
71996;BME280;59862;47.732;7.346;2023-03-04T11:32:36;98666.55;;;11.84;43.52
71996;BME280;59862;47.732;7.346;2023-03-04T11:35:31;98667.48;;;12.26;42.09
71996;BME280;59862;47.732;7.346;2023-03-04T11:38:13;98667.14;;;12.52;41.79
71996;BME280;59862;47.732;7.346;2023-03-04T11:40:43;98669.70;;;12.23;41.67
71996;BME280;59862;47.732;7.346;2023-03-04T11:43:13;98669.11;;;12.62;41.58
71996;BME280;59862;47.732;7.346;2023-03-04T11:48:59;98677.16;;;10.95;44.29
71996;BME280;59862;47.732;7.346;2023-03-04T11:57:35;98647.05;;;8.93;49.61
71996;BME280;59862;47.732;7.346;2023-03-04T12:02:29;98640.61;;;8.39;51.40
71996;BME280;59862;47.732;7.346;2023-03-04T12:08:13;98638.53;;;8.29;50.96
71996;BME280;59862;47.732;7.346;2023-03-04T12:10:44;98628.00;;;8.14;51.97
71996;BME280;59862;47.732;7.346;2023-03-04T12:16:07;98621.87;;;8.35;51.88
71996;BME280;59862;47.732;7.346;2023-03-04T12:24:17;98608.72;;;8.42;51.74
71996;BME280;59862;47.732;7.346;2023-03-04T12:27:28;98599.66;;;8.38;51.59
71996;BME280;59862;47.732;7.346;2023-03-04T12:32:06;98600.52;;;9.62;49.24
71996;BME280;59862;47.732;7.346;2023-03-04T12:34:56;98590.80;;;9.53;48.94
71996;BME280;59862;47.732;7.346;2023-03-04T12:48:40;98568.06;;;9.69;48.48
71996;BME280;59862;47.732;7.346;2023-03-04T12:51:16;98568.30;;;10.64;46.43
71996;BME280;59862;47.732;7.346;2023-03-04T12:56:31;98562.16;;;13.47;41.05
71996;BME280;59862;47.732;7.346;2023-03-04T12:58:56;98562.16;;;15.16;37.43
71996;BME280;59862;47.732;7.346;2023-03-04T13:01:43;98565.46;;;16.24;35.25
71996;BME280;59862;47.732;7.346;2023-03-04T13:04:18;98570.84;;;17.00;33.64
71996;BME280;59862;47.732;7.346;2023-03-04T13:09:31;98561.27;;;18.81;30.69
71996;BME280;59862;47.732;7.346;2023-03-04T13:12:14;98565.50;;;19.81;29.40
71996;BME280;59862;47.732;7.346;2023-03-04T13:17:37;98557.26;;;18.28;30.75
71996;BME280;59862;47.732;7.346;2023-03-04T13:20:32;98552.16;;;17.62;31.19
71996;BME280;59862;47.732;7.346;2023-03-04T13:23:01;98552.51;;;16.82;32.55
71996;BME280;59862;47.732;7.346;2023-03-04T13:25:48;98543.75;;;18.77;29.91
71996;BME280;59862;47.732;7.346;2023-03-04T13:28:19;98544.55;;;21.26;27.12
71996;BME280;59862;47.732;7.346;2023-03-04T13:36:00;98535.91;;;21.80;25.97
71996;BME280;59862;47.732;7.346;2023-03-04T13:38:33;98537.23;;;21.66;25.27
71996;BME280;59862;47.732;7.346;2023-03-04T13:41:22;98534.07;;;21.83;25.34
71996;BME280;59862;47.732;7.346;2023-03-04T13:43:51;98536.13;;;21.53;25.80
71996;BME280;59862;47.732;7.346;2023-03-04T13:51:38;98535.17;;;21.22;26.19
71996;BME280;59862;47.732;7.346;2023-03-04T13:59:38;98528.55;;;22.51;24.05
71996;BME280;59862;47.732;7.346;2023-03-04T14:02:11;98528.41;;;20.18;26.49
71996;BME280;59862;47.732;7.346;2023-03-04T14:04:43;98519.79;;;20.30;27.25
71996;BME280;59862;47.732;7.346;2023-03-04T14:07:28;98521.03;;;22.58;24.60
71996;BME280;59862;47.732;7.346;2023-03-04T14:12:54;98518.97;;;23.72;23.03
71996;BME280;59862;47.732;7.346;2023-03-04T14:15:27;98519.62;;;22.70;23.83
71996;BME280;59862;47.732;7.346;2023-03-04T14:17:57;98470.63;;;21.04;24.81
71996;BME280;59862;47.732;7.346;2023-03-04T14:20:33;98508.40;;;18.77;28.06
71996;BME280;59862;47.732;7.346;2023-03-04T14:23:03;98494.28;;;18.53;28.93
71996;BME280;59862;47.732;7.346;2023-03-04T14:25:33;98502.20;;;19.97;26.93
71996;BME280;59862;47.732;7.346;2023-03-04T14:28:18;98500.33;;;20.91;25.85
71996;BME280;59862;47.732;7.346;2023-03-04T14:30:54;98493.85;;;20.72;25.33
71996;BME280;59862;47.732;7.346;2023-03-04T14:33:25;98483.06;;;21.11;25.50
71996;BME280;59862;47.732;7.346;2023-03-04T14:36:01;98483.70;;;22.66;23.87
71996;BME280;59862;47.732;7.346;2023-03-04T14:38:34;98478.50;;;20.91;25.74